< < Back
Terminal Aerodrome Forecast


Current Version              Previous Versions:   1  2  3  4  5  6  7  8  9  

Terminal Aerodrome Forecast

553
FTUS44 KBMX 191700
TAFANB
TAF
KANB 191730Z 1918/2018 10007KT P6SM VCTS BKN050CB
      TEMPO 1918/1920 3SM TSRA
     FM200100 VRB03KT P6SM FEW250
     FM201000 08006KT 6SM BR SCT025=



Latest METAR

086
SAUS70 KWBC 200000 RRA
MTRANB
METAR KANB 192353Z AUTO 00000KT 10SM CLR 25/19 A3004 RMK AO2 SLP166
60006 T02500194 10278 20228 53001


USA.gov is the U.S. government's official web portal to all federal, state and local government web resources and services.